sensor_id;sensor_type;location;lat;lon;timestamp;temperature;humidity
46926;DHT22;32667;48.248;-1.700;2023-04-29T00:00:14;14.00;70.60
46926;DHT22;32667;48.248;-1.700;2023-04-29T00:02:40;14.00;70.90
46926;DHT22;32667;48.248;-1.700;2023-04-29T00:05:06;13.80;70.90
46926;DHT22;32667;48.248;-1.700;2023-04-29T00:07:31;13.80;71.20
46926;DHT22;32667;48.248;-1.700;2023-04-29T00:09:58;13.70;71.20
46926;DHT22;32667;48.248;-1.700;2023-04-29T00:12:25;13.70;71.30
46926;DHT22;32667;48.248;-1.700;2023-04-29T00:14:51;13.70;71.30
46926;DHT22;32667;48.248;-1.700;2023-04-29T00:17:17;13.60;71.30
46926;DHT22;32667;48.248;-1.700;2023-04-29T00:19:43;13.60;71.40
46926;DHT22;32667;48.248;-1.700;2023-04-29T00:22:10;13.50;71.30
46926;DHT22;32667;48.248;-1.700;2023-04-29T00:24:39;13.50;71.30
46926;DHT22;32667;48.248;-1.700;2023-04-29T00:27:05;13.50;71.30
46926;DHT22;32667;48.248;-1.700;2023-04-29T00:29:31;13.50;71.30
46926;DHT22;32667;48.248;-1.700;2023-04-29T00:31:57;13.50;71.30
46926;DHT22;32667;48.248;-1.700;2023-04-29T00:34:23;13.50;71.30
46926;DHT22;32667;48.248;-1.700;2023-04-29T00:36:49;13.40;71.30
46926;DHT22;32667;48.248;-1.700;2023-04-29T00:39:15;13.40;71.40
46926;DHT22;32667;48.248;-1.700;2023-04-29T00:41:40;13.30;71.30
46926;DHT22;32667;48.248;-1.700;2023-04-29T00:44:07;13.30;71.30
46926;DHT22;32667;48.248;-1.700;2023-04-29T00:46:32;13.40;71.30
46926;DHT22;32667;48.248;-1.700;2023-04-29T00:49:02;13.40;71.20
46926;DHT22;32667;48.248;-1.700;2023-04-29T00:51:28;13.40;71.20
46926;DHT22;32667;48.248;-1.700;2023-04-29T00:53:54;13.40;71.10
46926;DHT22;32667;48.248;-1.700;2023-04-29T00:56:20;13.40;71.00
46926;DHT22;32667;48.248;-1.700;2023-04-29T00:58:47;13.50;71.00
46926;DHT22;32667;48.248;-1.700;2023-04-29T01:01:18;13.40;70.90
46926;DHT22;32667;48.248;-1.700;2023-04-29T01:03:44;13.50;70.80
46926;DHT22;32667;48.248;-1.700;2023-04-29T01:09:20;13.40;70.90
46926;DHT22;32667;48.248;-1.700;2023-04-29T01:11:52;13.40;70.90
46926;DHT22;32667;48.248;-1.700;2023-04-29T01:14:20;13.40;71.00
46926;DHT22;32667;48.248;-1.700;2023-04-29T01:16:51;13.40;71.00
46926;DHT22;32667;48.248;-1.700;2023-04-29T01:22:05;13.30;71.20
46926;DHT22;32667;48.248;-1.700;2023-04-29T01:24:30;13.30;71.00
46926;DHT22;32667;48.248;-1.700;2023-04-29T01:27:09;13.30;71.00
46926;DHT22;32667;48.248;-1.700;2023-04-29T01:32:18;13.30;71.60
46926;DHT22;32667;48.248;-1.700;2023-04-29T01:41:13;13.30;70.90
46926;DHT22;32667;48.248;-1.700;2023-04-29T01:43:42;13.20;70.80
46926;DHT22;32667;48.248;-1.700;2023-04-29T01:46:08;13.20;70.90
46926;DHT22;32667;48.248;-1.700;2023-04-29T01:48:38;13.30;70.90
46926;DHT22;32667;48.248;-1.700;2023-04-29T01:51:05;13.30;70.90
46926;DHT22;32667;48.248;-1.700;2023-04-29T01:53:31;13.30;70.90
46926;DHT22;32667;48.248;-1.700;2023-04-29T01:55:57;13.30;70.80
46926;DHT22;32667;48.248;-1.700;2023-04-29T01:58:23;13.30;70.90
46926;DHT22;32667;48.248;-1.700;2023-04-29T02:00:48;13.30;70.90
46926;DHT22;32667;48.248;-1.700;2023-04-29T02:03:14;13.30;70.90
46926;DHT22;32667;48.248;-1.700;2023-04-29T02:05:42;13.30;70.90
46926;DHT22;32667;48.248;-1.700;2023-04-29T02:08:08;13.20;70.80
46926;DHT22;32667;48.248;-1.700;2023-04-29T02:10:33;13.20;70.80
46926;DHT22;32667;48.248;-1.700;2023-04-29T02:13:02;13.20;70.80
46926;DHT22;32667;48.248;-1.700;2023-04-29T02:15:27;13.20;70.90
46926;DHT22;32667;48.248;-1.700;2023-04-29T02:17:56;13.20;70.90
46926;DHT22;32667;48.248;-1.700;2023-04-29T02:20:22;13.20;70.90
46926;DHT22;32667;48.248;-1.700;2023-04-29T02:22:48;13.20;70.90
46926;DHT22;32667;48.248;-1.700;2023-04-29T02:25:13;13.20;70.90
46926;DHT22;32667;48.248;-1.700;2023-04-29T02:27:39;13.20;70.90
46926;DHT22;32667;48.248;-1.700;2023-04-29T02:30:05;13.20;70.90
46926;DHT22;32667;48.248;-1.700;2023-04-29T02:32:31;13.20;70.90
46926;DHT22;32667;48.248;-1.700;2023-04-29T02:34:57;13.20;70.80
46926;DHT22;32667;48.248;-1.700;2023-04-29T02:37:23;13.20;70.80
46926;DHT22;32667;48.248;-1.700;2023-04-29T02:39:49;13.20;70.80
46926;DHT22;32667;48.248;-1.700;2023-04-29T02:42:15;13.20;70.70
46926;DHT22;32667;48.248;-1.700;2023-04-29T02:44:40;13.20;70.70
46926;DHT22;32667;48.248;-1.700;2023-04-29T02:47:07;13.30;70.70
46926;DHT22;32667;48.248;-1.700;2023-04-29T02:49:32;13.30;70.70
46926;DHT22;32667;48.248;-1.700;2023-04-29T02:51:58;13.30;70.70
46926;DHT22;32667;48.248;-1.700;2023-04-29T02:54:24;13.30;70.70
46926;DHT22;32667;48.248;-1.700;2023-04-29T02:56:52;13.30;70.70
46926;DHT22;32667;48.248;-1.700;2023-04-29T02:59:20;13.30;70.70
46926;DHT22;32667;48.248;-1.700;2023-04-29T03:01:46;13.40;70.70
46926;DHT22;32667;48.248;-1.700;2023-04-29T03:04:12;13.40;70.70
46926;DHT22;32667;48.248;-1.700;2023-04-29T03:06:38;13.40;70.60
46926;DHT22;32667;48.248;-1.700;2023-04-29T03:09:04;13.50;70.60
46926;DHT22;32667;48.248;-1.700;2023-04-29T03:11:30;13.50;70.50
46926;DHT22;32667;48.248;-1.700;2023-04-29T03:13:58;13.40;70.50
46926;DHT22;32667;48.248;-1.700;2023-04-29T03:16:23;13.40;70.60
46926;DHT22;32667;48.248;-1.700;2023-04-29T03:18:53;13.40;70.60
46926;DHT22;32667;48.248;-1.700;2023-04-29T03:21:19;13.40;70.60
46926;DHT22;32667;48.248;-1.700;2023-04-29T03:23:44;13.40;70.60
46926;DHT22;32667;48.248;-1.700;2023-04-29T03:26:10;13.40;70.60
46926;DHT22;32667;48.248;-1.700;2023-04-29T03:28:36;13.50;70.60
46926;DHT22;32667;48.248;-1.700;2023-04-29T03:31:02;13.50;70.60
46926;DHT22;32667;48.248;-1.700;2023-04-29T03:33:28;13.50;70.60
46926;DHT22;32667;48.248;-1.700;2023-04-29T03:35:53;13.50;70.60
46926;DHT22;32667;48.248;-1.700;2023-04-29T03:38:20;13.50;70.60
46926;DHT22;32667;48.248;-1.700;2023-04-29T03:40:46;13.50;70.60
46926;DHT22;32667;48.248;-1.700;2023-04-29T03:43:11;13.50;70.50
46926;DHT22;32667;48.248;-1.700;2023-04-29T03:45:38;13.50;70.50
46926;DHT22;32667;48.248;-1.700;2023-04-29T03:48:04;13.50;70.50
46926;DHT22;32667;48.248;-1.700;2023-04-29T03:50:30;13.60;70.50
46926;DHT22;32667;48.248;-1.700;2023-04-29T03:52:56;13.60;70.50
46926;DHT22;32667;48.248;-1.700;2023-04-29T03:55:22;13.60;70.50
46926;DHT22;32667;48.248;-1.700;2023-04-29T03:57:48;13.60;70.50
46926;DHT22;32667;48.248;-1.700;2023-04-29T04:00:14;13.50;70.50
46926;DHT22;32667;48.248;-1.700;2023-04-29T04:02:39;13.50;70.50
46926;DHT22;32667;48.248;-1.700;2023-04-29T04:05:05;13.50;70.60
46926;DHT22;32667;48.248;-1.700;2023-04-29T04:07:31;13.50;70.60
46926;DHT22;32667;48.248;-1.700;2023-04-29T04:09:57;13.50;70.60
46926;DHT22;32667;48.248;-1.700;2023-04-29T04:12:22;13.50;70.50
46926;DHT22;32667;48.248;-1.700;2023-04-29T04:14:51;13.50;70.50
46926;DHT22;32667;48.248;-1.700;2023-04-29T04:17:17;13.40;70.40
46926;DHT22;32667;48.248;-1.700;2023-04-29T04:19:43;13.50;70.50
46926;DHT22;32667;48.248;-1.700;2023-04-29T04:22:08;13.50;70.50
46926;DHT22;32667;48.248;-1.700;2023-04-29T04:24:34;13.50;70.50
46926;DHT22;32667;48.248;-1.700;2023-04-29T04:27:00;13.50;70.50
46926;DHT22;32667;48.248;-1.700;2023-04-29T04:29:26;13.40;70.50
46926;DHT22;32667;48.248;-1.700;2023-04-29T04:31:52;13.40;70.50
46926;DHT22;32667;48.248;-1.700;2023-04-29T04:34:17;13.50;70.50
46926;DHT22;32667;48.248;-1.700;2023-04-29T04:36:43;13.50;70.50
46926;DHT22;32667;48.248;-1.700;2023-04-29T04:39:10;13.50;70.50
46926;DHT22;32667;48.248;-1.700;2023-04-29T04:41:36;13.50;70.50
46926;DHT22;32667;48.248;-1.700;2023-04-29T04:44:01;13.40;70.50
46926;DHT22;32667;48.248;-1.700;2023-04-29T04:46:27;13.40;70.50
46926;DHT22;32667;48.248;-1.700;2023-04-29T04:48:53;13.40;70.50
46926;DHT22;32667;48.248;-1.700;2023-04-29T04:51:19;13.40;70.60
46926;DHT22;32667;48.248;-1.700;2023-04-29T04:53:45;13.50;70.60
46926;DHT22;32667;48.248;-1.700;2023-04-29T04:56:11;13.50;70.50
46926;DHT22;32667;48.248;-1.700;2023-04-29T04:58:37;13.50;70.50
46926;DHT22;32667;48.248;-1.700;2023-04-29T05:01:02;13.50;70.50
46926;DHT22;32667;48.248;-1.700;2023-04-29T05:03:31;13.50;70.50
46926;DHT22;32667;48.248;-1.700;2023-04-29T05:05:58;13.50;70.50
46926;DHT22;32667;48.248;-1.700;2023-04-29T05:08:24;13.50;70.50
46926;DHT22;32667;48.248;-1.700;2023-04-29T05:10:51;13.50;70.40
46926;DHT22;32667;48.248;-1.700;2023-04-29T05:13:17;13.60;70.40
46926;DHT22;32667;48.248;-1.700;2023-04-29T05:15:43;13.60;70.40
46926;DHT22;32667;48.248;-1.700;2023-04-29T05:18:12;13.60;70.30
46926;DHT22;32667;48.248;-1.700;2023-04-29T05:20:38;13.60;70.30
46926;DHT22;32667;48.248;-1.700;2023-04-29T05:23:03;13.60;70.30
46926;DHT22;32667;48.248;-1.700;2023-04-29T05:25:29;13.60;70.40
46926;DHT22;32667;48.248;-1.700;2023-04-29T05:27:55;13.60;70.40
46926;DHT22;32667;48.248;-1.700;2023-04-29T05:30:24;13.60;70.40
46926;DHT22;32667;48.248;-1.700;2023-04-29T05:32:50;13.60;70.40
46926;DHT22;32667;48.248;-1.700;2023-04-29T05:35:16;13.60;70.40
46926;DHT22;32667;48.248;-1.700;2023-04-29T05:37:42;13.60;70.40
46926;DHT22;32667;48.248;-1.700;2023-04-29T05:40:08;13.60;70.30
46926;DHT22;32667;48.248;-1.700;2023-04-29T05:42:34;13.70;70.30
46926;DHT22;32667;48.248;-1.700;2023-04-29T05:45:00;13.60;70.30
46926;DHT22;32667;48.248;-1.700;2023-04-29T05:47:25;13.70;70.30
46926;DHT22;32667;48.248;-1.700;2023-04-29T05:49:51;13.60;70.30
46926;DHT22;32667;48.248;-1.700;2023-04-29T05:52:17;13.60;70.30
46926;DHT22;32667;48.248;-1.700;2023-04-29T05:54:43;13.60;70.30
46926;DHT22;32667;48.248;-1.700;2023-04-29T05:57:08;13.60;70.30
46926;DHT22;32667;48.248;-1.700;2023-04-29T05:59:35;13.60;70.30
46926;DHT22;32667;48.248;-1.700;2023-04-29T06:02:03;13.60;70.30
46926;DHT22;32667;48.248;-1.700;2023-04-29T06:04:29;13.60;70.30
46926;DHT22;32667;48.248;-1.700;2023-04-29T06:06:55;13.60;70.40
46926;DHT22;32667;48.248;-1.700;2023-04-29T06:09:22;13.60;70.30
46926;DHT22;32667;48.248;-1.700;2023-04-29T06:11:51;13.70;70.40
46926;DHT22;32667;48.248;-1.700;2023-04-29T06:14:17;13.60;70.30
46926;DHT22;32667;48.248;-1.700;2023-04-29T06:16:42;13.60;70.30
46926;DHT22;32667;48.248;-1.700;2023-04-29T06:19:08;13.70;70.30
46926;DHT22;32667;48.248;-1.700;2023-04-29T06:21:34;13.70;70.40
46926;DHT22;32667;48.248;-1.700;2023-04-29T06:24:00;13.70;70.30
46926;DHT22;32667;48.248;-1.700;2023-04-29T06:26:26;13.70;70.30
46926;DHT22;32667;48.248;-1.700;2023-04-29T06:28:51;13.60;70.20
46926;DHT22;32667;48.248;-1.700;2023-04-29T06:31:18;13.70;70.30
46926;DHT22;32667;48.248;-1.700;2023-04-29T06:33:44;13.70;70.30
46926;DHT22;32667;48.248;-1.700;2023-04-29T06:36:11;13.70;70.30
46926;DHT22;32667;48.248;-1.700;2023-04-29T06:38:36;13.70;70.30
46926;DHT22;32667;48.248;-1.700;2023-04-29T06:41:02;13.70;70.90
46926;DHT22;32667;48.248;-1.700;2023-04-29T06:43:32;13.70;70.30
46926;DHT22;32667;48.248;-1.700;2023-04-29T06:45:57;13.70;70.30
46926;DHT22;32667;48.248;-1.700;2023-04-29T06:48:23;13.70;70.20
46926;DHT22;32667;48.248;-1.700;2023-04-29T06:50:56;13.70;70.20
46926;DHT22;32667;48.248;-1.700;2023-04-29T06:53:23;13.70;70.30
46926;DHT22;32667;48.248;-1.700;2023-04-29T06:55:49;13.70;70.30
46926;DHT22;32667;48.248;-1.700;2023-04-29T06:58:16;13.70;70.20
46926;DHT22;32667;48.248;-1.700;2023-04-29T07:00:49;13.70;70.20
46926;DHT22;32667;48.248;-1.700;2023-04-29T07:03:16;13.70;70.20
46926;DHT22;32667;48.248;-1.700;2023-04-29T07:05:43;13.70;70.10
46926;DHT22;32667;48.248;-1.700;2023-04-29T07:08:10;13.70;70.10
46926;DHT22;32667;48.248;-1.700;2023-04-29T07:10:37;13.80;70.20
46926;DHT22;32667;48.248;-1.700;2023-04-29T07:13:03;13.70;70.20
46926;DHT22;32667;48.248;-1.700;2023-04-29T07:15:32;13.70;70.20
46926;DHT22;32667;48.248;-1.700;2023-04-29T07:17:58;13.70;70.20
46926;DHT22;32667;48.248;-1.700;2023-04-29T07:20:25;13.70;70.20
46926;DHT22;32667;48.248;-1.700;2023-04-29T07:22:52;13.80;70.20
46926;DHT22;32667;48.248;-1.700;2023-04-29T07:25:18;13.80;70.20
46926;DHT22;32667;48.248;-1.700;2023-04-29T07:27:43;13.80;70.20
46926;DHT22;32667;48.248;-1.700;2023-04-29T07:30:09;13.80;70.10
46926;DHT22;32667;48.248;-1.700;2023-04-29T07:32:35;13.80;70.20
46926;DHT22;32667;48.248;-1.700;2023-04-29T07:35:02;13.80;70.80
46926;DHT22;32667;48.248;-1.700;2023-04-29T07:37:28;13.80;70.10
46926;DHT22;32667;48.248;-1.700;2023-04-29T07:39:53;13.80;70.10
46926;DHT22;32667;48.248;-1.700;2023-04-29T07:42:19;13.90;70.10
46926;DHT22;32667;48.248;-1.700;2023-04-29T07:44:45;13.90;70.00
46926;DHT22;32667;48.248;-1.700;2023-04-29T07:47:11;13.90;70.10
46926;DHT22;32667;48.248;-1.700;2023-04-29T07:49:37;13.90;70.00
46926;DHT22;32667;48.248;-1.700;2023-04-29T07:52:06;13.90;70.00
46926;DHT22;32667;48.248;-1.700;2023-04-29T07:54:34;13.90;70.00
46926;DHT22;32667;48.248;-1.700;2023-04-29T07:57:00;14.00;70.00
46926;DHT22;32667;48.248;-1.700;2023-04-29T07:59:28;14.00;70.00
46926;DHT22;32667;48.248;-1.700;2023-04-29T08:01:53;14.00;69.90
46926;DHT22;32667;48.248;-1.700;2023-04-29T08:04:20;14.00;69.80
46926;DHT22;32667;48.248;-1.700;2023-04-29T08:06:45;14.10;69.90
46926;DHT22;32667;48.248;-1.700;2023-04-29T08:09:12;14.10;69.80
46926;DHT22;32667;48.248;-1.700;2023-04-29T08:11:37;14.10;69.80
46926;DHT22;32667;48.248;-1.700;2023-04-29T08:14:04;14.10;69.80
46926;DHT22;32667;48.248;-1.700;2023-04-29T08:16:30;14.10;69.80
46926;DHT22;32667;48.248;-1.700;2023-04-29T08:18:56;14.10;69.80
46926;DHT22;32667;48.248;-1.700;2023-04-29T08:21:22;14.10;69.80
46926;DHT22;32667;48.248;-1.700;2023-04-29T08:23:48;14.20;69.80
46926;DHT22;32667;48.248;-1.700;2023-04-29T08:26:14;14.20;69.80
46926;DHT22;32667;48.248;-1.700;2023-04-29T08:28:40;14.20;69.70
46926;DHT22;32667;48.248;-1.700;2023-04-29T08:31:06;14.20;69.70
46926;DHT22;32667;48.248;-1.700;2023-04-29T08:33:35;14.20;69.60
46926;DHT22;32667;48.248;-1.700;2023-04-29T08:36:02;14.30;69.60
46926;DHT22;32667;48.248;-1.700;2023-04-29T08:38:31;14.30;69.60
46926;DHT22;32667;48.248;-1.700;2023-04-29T08:40:56;14.40;69.60
46926;DHT22;32667;48.248;-1.700;2023-04-29T08:43:22;14.40;69.50
46926;DHT22;32667;48.248;-1.700;2023-04-29T08:45:49;14.50;69.40
46926;DHT22;32667;48.248;-1.700;2023-04-29T08:48:16;14.40;69.30
46926;DHT22;32667;48.248;-1.700;2023-04-29T08:50:42;14.50;69.40
46926;DHT22;32667;48.248;-1.700;2023-04-29T08:53:12;14.50;69.40
46926;DHT22;32667;48.248;-1.700;2023-04-29T08:55:43;14.40;69.40
46926;DHT22;32667;48.248;-1.700;2023-04-29T08:58:10;14.50;69.40
46926;DHT22;32667;48.248;-1.700;2023-04-29T09:00:38;14.50;69.40
46926;DHT22;32667;48.248;-1.700;2023-04-29T09:03:29;14.50;69.50
46926;DHT22;32667;48.248;-1.700;2023-04-29T09:05:58;14.50;69.50
46926;DHT22;32667;48.248;-1.700;2023-04-29T09:08:25;14.50;69.40
46926;DHT22;32667;48.248;-1.700;2023-04-29T09:10:51;14.60;69.50
46926;DHT22;32667;48.248;-1.700;2023-04-29T09:13:24;14.60;69.50
46926;DHT22;32667;48.248;-1.700;2023-04-29T09:15:50;14.70;69.40
46926;DHT22;32667;48.248;-1.700;2023-04-29T09:18:50;14.70;69.40
46926;DHT22;32667;48.248;-1.700;2023-04-29T09:21:20;14.80;69.40
46926;DHT22;32667;48.248;-1.700;2023-04-29T09:23:49;14.80;69.20
46926;DHT22;32667;48.248;-1.700;2023-04-29T09:26:16;14.80;69.20
46926;DHT22;32667;48.248;-1.700;2023-04-29T09:28:42;14.90;69.20
46926;DHT22;32667;48.248;-1.700;2023-04-29T09:31:12;14.90;69.20
46926;DHT22;32667;48.248;-1.700;2023-04-29T09:33:54;14.90;69.10
46926;DHT22;32667;48.248;-1.700;2023-04-29T09:36:46;15.00;69.10
46926;DHT22;32667;48.248;-1.700;2023-04-29T09:39:19;15.00;69.00
46926;DHT22;32667;48.248;-1.700;2023-04-29T09:44:20;15.10;68.90
46926;DHT22;32667;48.248;-1.700;2023-04-29T09:49:33;15.20;68.80
46926;DHT22;32667;48.248;-1.700;2023-04-29T09:52:07;15.30;68.80
46926;DHT22;32667;48.248;-1.700;2023-04-29T09:54:35;15.30;68.70
46926;DHT22;32667;48.248;-1.700;2023-04-29T09:57:01;15.50;68.70
46926;DHT22;32667;48.248;-1.700;2023-04-29T09:59:30;15.60;68.50
46926;DHT22;32667;48.248;-1.700;2023-04-29T10:01:57;15.70;68.40
46926;DHT22;32667;48.248;-1.700;2023-04-29T10:04:26;15.70;68.30
46926;DHT22;32667;48.248;-1.700;2023-04-29T10:06:55;15.80;68.80
46926;DHT22;32667;48.248;-1.700;2023-04-29T10:09:22;15.90;68.20
46926;DHT22;32667;48.248;-1.700;2023-04-29T10:11:50;15.90;68.20
46926;DHT22;32667;48.248;-1.700;2023-04-29T10:14:20;16.00;68.20
46926;DHT22;32667;48.248;-1.700;2023-04-29T10:17:02;16.00;68.10
46926;DHT22;32667;48.248;-1.700;2023-04-29T10:19:46;16.10;68.10
46926;DHT22;32667;48.248;-1.700;2023-04-29T10:22:45;16.20;68.10
46926;DHT22;32667;48.248;-1.700;2023-04-29T10:25:11;16.10;68.00
46926;DHT22;32667;48.248;-1.700;2023-04-29T10:27:41;16.30;68.00
46926;DHT22;32667;48.248;-1.700;2023-04-29T10:30:14;16.40;67.90
46926;DHT22;32667;48.248;-1.700;2023-04-29T10:32:42;16.40;67.90
46926;DHT22;32667;48.248;-1.700;2023-04-29T10:35:12;16.50;68.50
46926;DHT22;32667;48.248;-1.700;2023-04-29T10:37:40;16.50;67.80
46926;DHT22;32667;48.248;-1.700;2023-04-29T10:42:45;16.60;67.90
46926;DHT22;32667;48.248;-1.700;2023-04-29T10:45:27;16.70;67.80
46926;DHT22;32667;48.248;-1.700;2023-04-29T10:53:02;16.90;67.50
46926;DHT22;32667;48.248;-1.700;2023-04-29T10:55:32;16.90;67.50
46926;DHT22;32667;48.248;-1.700;2023-04-29T10:58:02;17.00;67.60
46926;DHT22;32667;48.248;-1.700;2023-04-29T11:00:32;17.00;67.70
46926;DHT22;32667;48.248;-1.700;2023-04-29T11:03:00;17.10;67.70
46926;DHT22;32667;48.248;-1.700;2023-04-29T11:05:34;17.10;67.60
46926;DHT22;32667;48.248;-1.700;2023-04-29T11:08:19;17.20;67.60
46926;DHT22;32667;48.248;-1.700;2023-04-29T11:11:08;17.20;67.40
46926;DHT22;32667;48.248;-1.700;2023-04-29T11:13:38;17.30;67.40
46926;DHT22;32667;48.248;-1.700;2023-04-29T11:16:05;17.40;67.40
46926;DHT22;32667;48.248;-1.700;2023-04-29T11:18:32;17.40;67.40
46926;DHT22;32667;48.248;-1.700;2023-04-29T11:23:36;17.40;67.50
46926;DHT22;32667;48.248;-1.700;2023-04-29T11:26:03;17.40;67.50
46926;DHT22;32667;48.248;-1.700;2023-04-29T11:28:30;17.40;67.50
46926;DHT22;32667;48.248;-1.700;2023-04-29T11:30:57;17.50;67.60
46926;DHT22;32667;48.248;-1.700;2023-04-29T11:33:24;17.60;67.50
46926;DHT22;32667;48.248;-1.700;2023-04-29T11:35:51;17.70;67.30
46926;DHT22;32667;48.248;-1.700;2023-04-29T11:38:26;17.80;67.20
46926;DHT22;32667;48.248;-1.700;2023-04-29T11:40:58;17.80;67.10
46926;DHT22;32667;48.248;-1.700;2023-04-29T11:43:24;18.00;67.00
46926;DHT22;32667;48.248;-1.700;2023-04-29T11:45:51;18.10;66.80
46926;DHT22;32667;48.248;-1.700;2023-04-29T11:48:21;18.20;66.80
46926;DHT22;32667;48.248;-1.700;2023-04-29T11:50:52;18.20;66.80
46926;DHT22;32667;48.248;-1.700;2023-04-29T11:53:20;18.30;66.80
46926;DHT22;32667;48.248;-1.700;2023-04-29T11:55:46;18.30;66.80
46926;DHT22;32667;48.248;-1.700;2023-04-29T11:58:16;18.30;66.60
46926;DHT22;32667;48.248;-1.700;2023-04-29T12:00:42;18.40;66.70
46926;DHT22;32667;48.248;-1.700;2023-04-29T12:03:13;18.40;66.70
46926;DHT22;32667;48.248;-1.700;2023-04-29T12:05:54;18.40;66.80
46926;DHT22;32667;48.248;-1.700;2023-04-29T12:08:27;18.50;66.90
46926;DHT22;32667;48.248;-1.700;2023-04-29T12:10:55;18.60;66.80
46926;DHT22;32667;48.248;-1.700;2023-04-29T12:13:28;18.70;66.60
46926;DHT22;32667;48.248;-1.700;2023-04-29T12:15:55;18.70;66.60
46926;DHT22;32667;48.248;-1.700;2023-04-29T12:18:24;18.80;66.50
46926;DHT22;32667;48.248;-1.700;2023-04-29T12:20:52;18.90;66.40
46926;DHT22;32667;48.248;-1.700;2023-04-29T12:23:21;19.00;66.40
46926;DHT22;32667;48.248;-1.700;2023-04-29T12:25:58;19.10;66.40
46926;DHT22;32667;48.248;-1.700;2023-04-29T12:28:24;19.20;66.20
46926;DHT22;32667;48.248;-1.700;2023-04-29T12:30:52;19.40;66.10
46926;DHT22;32667;48.248;-1.700;2023-04-29T12:33:28;19.50;65.90
46926;DHT22;32667;48.248;-1.700;2023-04-29T12:35:57;19.60;65.80
46926;DHT22;32667;48.248;-1.700;2023-04-29T12:38:30;19.60;65.80
46926;DHT22;32667;48.248;-1.700;2023-04-29T12:40:58;19.60;65.80
46926;DHT22;32667;48.248;-1.700;2023-04-29T12:43:27;19.70;65.90
46926;DHT22;32667;48.248;-1.700;2023-04-29T12:46:03;19.80;65.70
46926;DHT22;32667;48.248;-1.700;2023-04-29T12:48:31;19.90;65.70
46926;DHT22;32667;48.248;-1.700;2023-04-29T12:50:57;19.90;65.70
46926;DHT22;32667;48.248;-1.700;2023-04-29T12:53:25;19.90;65.80
46926;DHT22;32667;48.248;-1.700;2023-04-29T12:55:52;20.00;65.80
46926;DHT22;32667;48.248;-1.700;2023-04-29T12:58:18;20.10;65.60
46926;DHT22;32667;48.248;-1.700;2023-04-29T13:00:43;20.20;65.60
46926;DHT22;32667;48.248;-1.700;2023-04-29T13:03:09;20.20;65.60
46926;DHT22;32667;48.248;-1.700;2023-04-29T13:05:35;20.30;65.70
46926;DHT22;32667;48.248;-1.700;2023-04-29T13:08:02;20.40;65.50
46926;DHT22;32667;48.248;-1.700;2023-04-29T13:10:30;20.70;65.10
46926;DHT22;32667;48.248;-1.700;2023-04-29T13:12:55;20.80;65.10
46926;DHT22;32667;48.248;-1.700;2023-04-29T13:15:21;21.10;65.00
46926;DHT22;32667;48.248;-1.700;2023-04-29T13:17:47;21.20;64.80
46926;DHT22;32667;48.248;-1.700;2023-04-29T13:20:13;21.20;64.70
46926;DHT22;32667;48.248;-1.700;2023-04-29T13:22:40;21.00;64.90
46926;DHT22;32667;48.248;-1.700;2023-04-29T13:25:08;21.00;65.30
46926;DHT22;32667;48.248;-1.700;2023-04-29T13:27:34;21.20;65.30
46926;DHT22;32667;48.248;-1.700;2023-04-29T13:30:00;21.40;65.00
46926;DHT22;32667;48.248;-1.700;2023-04-29T13:32:26;21.70;64.60
46926;DHT22;32667;48.248;-1.700;2023-04-29T13:34:52;21.90;64.20
46926;DHT22;32667;48.248;-1.700;2023-04-29T13:37:18;22.00;64.00
46926;DHT22;32667;48.248;-1.700;2023-04-29T13:39:46;22.10;64.10
46926;DHT22;32667;48.248;-1.700;2023-04-29T13:42:12;22.10;64.20
46926;DHT22;32667;48.248;-1.700;2023-04-29T13:44:38;22.00;64.30
46926;DHT22;32667;48.248;-1.700;2023-04-29T13:47:09;21.90;64.60
46926;DHT22;32667;48.248;-1.700;2023-04-29T13:49:36;21.80;64.90
46926;DHT22;32667;48.248;-1.700;2023-04-29T13:52:02;21.90;65.00
46926;DHT22;32667;48.248;-1.700;2023-04-29T13:54:28;22.10;64.80
46926;DHT22;32667;48.248;-1.700;2023-04-29T13:56:53;22.30;64.50
46926;DHT22;32667;48.248;-1.700;2023-04-29T13:59:19;22.50;64.10
46926;DHT22;32667;48.248;-1.700;2023-04-29T14:01:45;22.80;63.90
46926;DHT22;32667;48.248;-1.700;2023-04-29T14:04:11;23.00;63.60
46926;DHT22;32667;48.248;-1.700;2023-04-29T14:06:37;23.00;63.50
46926;DHT22;32667;48.248;-1.700;2023-04-29T14:09:02;22.90;63.70
46926;DHT22;32667;48.248;-1.700;2023-04-29T14:11:28;22.80;64.10
46926;DHT22;32667;48.248;-1.700;2023-04-29T14:13:54;22.70;64.40
46926;DHT22;32667;48.248;-1.700;2023-04-29T14:16:20;22.90;64.40
46926;DHT22;32667;48.248;-1.700;2023-04-29T14:18:46;23.10;64.10
46926;DHT22;32667;48.248;-1.700;2023-04-29T14:21:12;23.30;63.70
46926;DHT22;32667;48.248;-1.700;2023-04-29T14:23:38;23.40;63.60
46926;DHT22;32667;48.248;-1.700;2023-04-29T14:26:04;23.30;64.30
46926;DHT22;32667;48.248;-1.700;2023-04-29T14:28:29;23.20;64.00
46926;DHT22;32667;48.248;-1.700;2023-04-29T14:30:55;23.00;64.40
46926;DHT22;32667;48.248;-1.700;2023-04-29T14:33:21;22.90;64.70
46926;DHT22;32667;48.248;-1.700;2023-04-29T14:35:47;22.90;64.70
46926;DHT22;32667;48.248;-1.700;2023-04-29T14:38:13;22.80;64.80
46926;DHT22;32667;48.248;-1.700;2023-04-29T14:40:39;22.70;65.20
46926;DHT22;32667;48.248;-1.700;2023-04-29T14:43:04;22.50;65.20
46926;DHT22;32667;48.248;-1.700;2023-04-29T14:45:31;22.40;65.50
46926;DHT22;32667;48.248;-1.700;2023-04-29T14:47:56;22.50;65.60
46926;DHT22;32667;48.248;-1.700;2023-04-29T14:50:22;22.60;65.50
46926;DHT22;32667;48.248;-1.700;2023-04-29T14:52:49;22.80;65.10
46926;DHT22;32667;48.248;-1.700;2023-04-29T14:55:15;22.80;64.80
46926;DHT22;32667;48.248;-1.700;2023-04-29T14:57:43;22.70;64.90
46926;DHT22;32667;48.248;-1.700;2023-04-29T15:00:10;22.60;65.20
46926;DHT22;32667;48.248;-1.700;2023-04-29T15:02:39;22.40;65.40
46926;DHT22;32667;48.248;-1.700;2023-04-29T15:05:05;22.30;65.70
46926;DHT22;32667;48.248;-1.700;2023-04-29T15:07:31;22.20;65.90
46926;DHT22;32667;48.248;-1.700;2023-04-29T15:09:57;22.10;66.00
46926;DHT22;32667;48.248;-1.700;2023-04-29T15:12:23;22.20;66.00
46926;DHT22;32667;48.248;-1.700;2023-04-29T15:14:49;22.40;65.70
46926;DHT22;32667;48.248;-1.700;2023-04-29T15:17:17;22.60;65.30
46926;DHT22;32667;48.248;-1.700;2023-04-29T15:19:43;22.80;64.90
46926;DHT22;32667;48.248;-1.700;2023-04-29T15:22:09;22.90;64.70
46926;DHT22;32667;48.248;-1.700;2023-04-29T15:24:35;22.90;64.80
46926;DHT22;32667;48.248;-1.700;2023-04-29T15:27:03;22.70;65.00
46926;DHT22;32667;48.248;-1.700;2023-04-29T15:29:29;22.50;65.40
46926;DHT22;32667;48.248;-1.700;2023-04-29T15:31:57;22.30;65.60
46926;DHT22;32667;48.248;-1.700;2023-04-29T15:34:23;22.20;65.90
46926;DHT22;32667;48.248;-1.700;2023-04-29T15:36:48;22.10;66.10
46926;DHT22;32667;48.248;-1.700;2023-04-29T15:39:15;22.00;66.30
46926;DHT22;32667;48.248;-1.700;2023-04-29T15:41:42;22.00;66.30
46926;DHT22;32667;48.248;-1.700;2023-04-29T15:44:07;22.00;66.20
46926;DHT22;32667;48.248;-1.700;2023-04-29T15:46:33;22.20;66.00